Time;durP1;ratioP1;P1;durP2;ratioP2;P2;SDS_P1;SDS_P2;PMS_P1;PMS_P2;Temp;Humidity;BMP_temperature;BMP_pressure;BME280_temperature;BME280_humidity;BME280_pressure;Samples;Min_cycle;Max_cycle;Signal;HPM_P1;HPM_P2
2023/02/20 05:31:12;;;;;;;3.70;3.40;;;5.90;83.60;;;;;;6109426;23;20089;-78
2023/02/20 05:33:37;;;;;;;4.25;3.08;;;6.00;83.40;;;;;;6101657;23;20046;-76
2023/02/20 05:36:04;;;;;;;3.50;3.15;;;6.00;82.70;;;;;;6129222;23;20002;-76
2023/02/20 05:38:30;;;;;;;4.05;3.42;;;6.00;82.40;;;;;;6104379;23;20009;-76
2023/02/20 05:40:55;;;;;;;4.90;3.60;;;6.00;82.20;;;;;;6104603;23;20010;-76
2023/02/20 05:43:21;;;;;;;4.65;3.08;;;6.00;81.80;;;;;;6104518;23;20013;-76
2023/02/20 05:45:47;;;;;;;4.20;2.67;;;6.10;81.60;;;;;;6129881;23;20036;-78
2023/02/20 05:48:14;;;;;;;4.28;3.38;;;6.00;81.10;;;;;;6104362;23;20077;-76
2023/02/20 05:50:42;;;;;;;4.05;3.45;;;6.00;81.40;;;;;;6104394;23;20006;-76
2023/02/20 05:53:08;;;;;;;4.55;3.03;;;6.00;81.30;;;;;;6130177;23;20478;-76
2023/02/20 05:55:34;;;;;;;4.07;3.63;;;6.00;81.30;;;;;;6130342;23;20037;-76
2023/02/20 05:57:59;;;;;;;4.57;3.50;;;6.00;81.30;;;;;;6129912;23;20014;-76
2023/02/20 06:00:25;;;;;;;5.10;3.35;;;6.10;81.00;;;;;;6128938;23;20016;-76
2023/02/20 06:02:51;;;;;;;4.78;3.35;;;6.10;80.80;;;;;;6128540;23;20040;-75
2023/02/20 06:05:17;;;;;;;3.42;2.72;;;6.10;80.60;;;;;;6104324;23;20002;-76
2023/02/20 06:07:47;;;;;;;3.38;3.03;;;6.10;80.70;;;;;;6129899;23;19998;-76
2023/02/20 06:10:17;;;;;;;3.92;3.38;;;6.00;80.70;;;;;;6104615;23;20008;-76
2023/02/20 06:12:42;;;;;;;3.58;2.85;;;6.10;80.90;;;;;;6130209;23;20101;-76
2023/02/20 06:15:08;;;;;;;4.75;3.22;;;6.00;81.40;;;;;;6130327;23;20006;-76
2023/02/20 06:17:34;;;;;;;6.65;3.03;;;6.00;81.30;;;;;;6130025;23;20017;-76
2023/02/20 06:19:59;;;;;;;4.57;2.85;;;6.00;81.50;;;;;;6129970;23;20007;-76
2023/02/20 06:22:25;;;;;;;5.57;2.72;;;6.00;81.00;;;;;;6130068;23;20081;-78
2023/02/20 06:24:53;;;;;;;3.67;3.08;;;6.10;80.90;;;;;;6130459;23;20087;-76
2023/02/20 06:27:19;;;;;;;4.60;2.70;;;6.10;80.60;;;;;;6103864;23;20032;-80
2023/02/20 06:29:48;;;;;;;5.15;3.67;;;6.10;80.70;;;;;;6103855;23;20446;-80
2023/02/20 06:32:14;;;;;;;3.42;3.13;;;6.10;80.70;;;;;;6129543;23;20136;-85
2023/02/20 06:34:40;;;;;;;20.23;10.00;;;6.20;80.60;;;;;;6129324;23;20431;-78
2023/02/20 06:37:06;;;;;;;20.75;12.85;;;6.10;80.80;;;;;;6104297;23;20041;-80
2023/02/20 06:39:32;;;;;;;15.00;9.20;;;6.10;80.60;;;;;;6104157;23;20060;-81
2023/02/20 06:41:58;;;;;;;23.20;14.38;;;6.20;80.30;;;;;;6103473;23;20006;-78
2023/02/20 06:44:23;;;;;;;7.53;6.13;;;6.10;80.50;;;;;;6103848;23;20068;-80
2023/02/20 06:46:49;;;;;;;10.40;5.80;;;6.10;80.60;;;;;;6129329;23;19998;-76
2023/02/20 06:49:15;;;;;;;9.45;4.55;;;6.20;80.40;;;;;;6129822;23;20478;-77
2023/02/20 06:51:41;;;;;;;3.75;3.03;;;6.10;80.60;;;;;;6129955;23;20002;-83
2023/02/20 06:54:09;;;;;;;3.97;2.88;;;6.20;80.10;;;;;;6129859;23;20002;-80
2023/02/20 06:56:35;;;;;;;21.10;16.45;;;6.20;80.10;;;;;;6129928;23;20006;-81
2023/02/20 06:59:08;;;;;;;5.55;4.35;;;6.20;80.10;;;;;;6129422;23;20065;-77
2023/02/20 07:01:39;;;;;;;9.88;5.55;;;6.20;80.20;;;;;;6103436;23;20018;-77
2023/02/20 07:04:34;;;;;;;4.72;3.15;;;6.10;80.50;;;;;;6127931;23;19995;-77
2023/02/20 07:07:00;;;;;;;4.57;3.53;;;6.20;79.90;;;;;;6127397;23;20013;-78
2023/02/20 07:09:26;;;;;;;8.60;6.25;;;6.10;80.30;;;;;;6129318;23;20056;-77
2023/02/20 07:11:52;;;;;;;10.20;7.47;;;6.10;79.90;;;;;;6129822;23;20025;-77
2023/02/20 07:14:18;;;;;;;5.88;3.50;;;6.10;80.00;;;;;;6103609;23;20040;-77
2023/02/20 07:16:43;;;;;;;12.27;7.97;;;6.00;80.30;;;;;;6129679;23;20106;-77
2023/02/20 07:19:09;;;;;;;6.30;5.40;;;6.10;80.20;;;;;;6128786;23;20002;-76
2023/02/20 07:21:35;;;;;;;4.63;3.60;;;6.10;80.30;;;;;;6128624;23;20016;-76
2023/02/20 07:24:01;;;;;;;5.90;4.22;;;6.10;80.10;;;;;;6101976;23;20055;-79
2023/02/20 07:26:28;;;;;;;6.47;2.92;;;6.00;79.90;;;;;;6103610;23;20426;-82
2023/02/20 07:28:57;;;;;;;4.88;3.85;;;5.90;80.80;;;;;;6129526;23;20005;-78
2023/02/20 07:31:23;;;;;;;4.70;3.25;;;6.00;80.60;;;;;;6113493;23;20077;-78
2023/02/20 07:33:49;;;;;;;3.70;2.65;;;6.10;80.60;;;;;;6127785;23;20096;-78
2023/02/20 07:36:15;;;;;;;7.65;6.45;;;6.00;80.60;;;;;;6127212;23;20051;-78
2023/02/20 07:38:41;;;;;;;4.25;3.35;;;6.20;80.50;;;;;;6126807;23;20013;-78
2023/02/20 07:41:08;;;;;;;11.75;8.85;;;6.20;80.70;;;;;;6129244;23;20452;-78
2023/02/20 07:43:34;;;;;;;6.85;5.15;;;6.20;80.70;;;;;;6128198;23;19998;-78
2023/02/20 07:46:00;;;;;;;9.93;6.70;;;6.20;80.40;;;;;;6128483;23;20473;-78
2023/02/20 07:48:25;;;;;;;19.77;14.13;;;6.20;80.40;;;;;;6126398;23;20030;-77
2023/02/20 07:50:51;;;;;;;15.80;13.80;;;6.20;80.30;;;;;;6128100;23;20002;-78
2023/02/20 07:53:20;;;;;;;7.00;5.70;;;6.20;79.70;;;;;;6129677;23;20012;-78
2023/02/20 07:55:45;;;;;;;5.15;3.35;;;6.20;80.10;;;;;;6129070;23;20009;-78
2023/02/20 07:58:11;;;;;;;4.65;3.58;;;6.20;80.20;;;;;;6129490;23;20058;-78
2023/02/20 08:00:37;;;;;;;5.47;3.10;;;6.30;80.70;;;;;;6127511;23;20010;-79
2023/02/20 08:03:02;;;;;;;4.03;2.70;;;6.30;80.90;;;;;;6129291;23;20511;-78
2023/02/20 08:05:29;;;;;;;3.15;2.85;;;6.40;80.70;;;;;;6129083;23;19998;-78
2023/02/20 08:07:55;;;;;;;4.80;2.38;;;6.50;80.30;;;;;;6129036;23;19998;-78
2023/02/20 08:10:26;;;;;;;3.47;2.58;;;6.30;80.90;;;;;;6127923;23;20005;-78
2023/02/20 08:12:53;;;;;;;3.75;2.45;;;6.20;81.10;;;;;;6127638;23;20006;-78
2023/02/20 08:15:21;;;;;;;2.83;2.60;;;6.20;81.70;;;;;;6127148;23;20040;-78
2023/02/20 08:17:47;;;;;;;4.50;1.92;;;6.20;81.30;;;;;;6127854;23;20002;-78
2023/02/20 08:20:17;;;;;;;3.72;2.60;;;6.20;81.90;;;;;;6129144;23;20012;-79
2023/02/20 08:22:46;;;;;;;3.38;2.80;;;6.40;82.10;;;;;;6129126;23;20012;-78
2023/02/20 08:25:13;;;;;;;4.15;3.38;;;6.50;81.50;;;;;;6127156;23;20006;-78
2023/02/20 08:27:48;;;;;;;3.97;2.97;;;6.60;81.10;;;;;;6127913;23;20077;-79
2023/02/20 08:30:17;;;;;;;5.15;2.67;;;6.50;80.70;;;;;;6128692;23;20053;-78
2023/02/20 08:32:43;;;;;;;5.00;3.40;;;6.60;81.30;;;;;;6103049;23;20037;-78
2023/02/20 08:35:09;;;;;;;5.38;2.63;;;6.70;81.40;;;;;;6128838;23;20006;-78
2023/02/20 08:37:34;;;;;;;3.83;2.80;;;6.60;81.30;;;;;;6128971;23;20028;-78
2023/02/20 08:40:05;;;;;;;4.03;2.58;;;6.70;81.60;;;;;;6128858;23;20014;-78
2023/02/20 08:42:31;;;;;;;4.78;3.17;;;6.80;81.50;;;;;;6103075;23;20070;-77
2023/02/20 08:44:57;;;;;;;6.28;2.83;;;6.90;81.10;;;;;;6103041;23;20006;-78
2023/02/20 08:47:22;;;;;;;7.57;3.00;;;6.80;80.30;;;;;;6103076;23;20454;-78
2023/02/20 08:49:48;;;;;;;5.07;3.80;;;6.90;81.40;;;;;;6129025;23;20342;-78
2023/02/20 08:52:14;;;;;;;4.82;3.20;;;7.00;81.20;;;;;;6128749;23;20092;-78
2023/02/20 08:54:43;;;;;;;5.18;3.70;;;7.20;81.20;;;;;;6103048;23;20006;-78
2023/02/20 08:57:08;;;;;;;4.35;3.03;;;7.30;80.40;;;;;;6128505;23;20006;-78
2023/02/20 08:59:36;;;;;;;8.38;2.63;;;7.40;80.20;;;;;;6129254;23;20002;-79
2023/02/20 09:02:01;;;;;;;3.08;2.65;;;7.40;80.00;;;;;;6128357;23;20030;-78
2023/02/20 09:04:27;;;;;;;4.30;3.60;;;7.50;79.80;;;;;;6128745;23;20002;-78
2023/02/20 09:06:53;;;;;;;6.03;3.08;;;7.70;80.10;;;;;;6129208;23;20521;-78
2023/02/20 09:09:18;;;;;;;8.77;4.38;;;7.70;80.00;;;;;;6128906;23;20001;-78
2023/02/20 09:11:44;;;;;;;5.65;3.28;;;7.70;79.90;;;;;;6129028;23;20044;-78
2023/02/20 09:14:10;;;;;;;4.00;3.30;;;7.70;79.80;;;;;;6128501;23;20006;-78
2023/02/20 09:16:35;;;;;;;4.95;3.25;;;7.80;79.80;;;;;;6128800;23;20351;-78
2023/02/20 09:19:01;;;;;;;6.30;3.25;;;7.90;79.90;;;;;;6128825;23;20326;-78
2023/02/20 09:21:28;;;;;;;5.78;3.30;;;8.00;79.80;;;;;;6128785;23;20010;-78
2023/02/20 09:23:53;;;;;;;6.15;3.45;;;8.10;79.50;;;;;;6102683;23;20010;-79
2023/02/20 09:26:19;;;;;;;5.45;3.00;;;8.20;79.50;;;;;;6128834;23;20009;-79
2023/02/20 09:28:45;;;;;;;7.32;3.75;;;8.30;79.40;;;;;;6129013;23;20454;-78
2023/02/20 09:31:10;;;;;;;5.15;3.28;;;8.40;79.10;;;;;;6128218;23;20019;-78
2023/02/20 09:33:36;;;;;;;5.85;3.40;;;8.40;78.70;;;;;;6102567;23;20005;-78
2023/02/20 09:36:02;;;;;;;7.47;3.03;;;8.40;79.10;;;;;;6103092;23;20006;-78
2023/02/20 09:38:28;;;;;;;2.95;2.45;;;8.50;78.90;;;;;;6102571;23;20089;-78
2023/02/20 09:40:59;;;;;;;5.57;3.35;;;8.50;78.80;;;;;;6129092;23;20125;-78
2023/02/20 09:43:48;;;;;;;6.63;3.20;;;8.50;79.00;;;;;;6128331;23;20006;-78
2023/02/20 09:46:22;;;;;;;3.95;2.97;;;8.50;79.40;;;;;;6102577;23;20012;-79
2023/02/20 09:48:50;;;;;;;5.38;2.63;;;8.60;79.60;;;;;;6129034;23;20361;-78
2023/02/20 09:51:21;;;;;;;6.20;3.08;;;8.70;79.20;;;;;;6128508;23;20009;-79
2023/02/20 09:54:06;;;;;;;8.05;3.45;;;8.80;79.40;;;;;;6128822;23;19998;-78
2023/02/20 09:56:39;;;;;;;10.70;3.45;;;8.80;79.50;;;;;;6128465;23;20002;-78
2023/02/20 09:59:16;;;;;;;8.93;3.63;;;8.80;79.70;;;;;;6102871;23;20010;-78
2023/02/20 10:01:56;;;;;;;6.68;3.30;;;8.70;79.80;;;;;;6128472;23;20497;-79
2023/02/20 10:04:29;;;;;;;13.57;3.38;;;8.70;79.70;;;;;;6102394;23;20304;-79
2023/02/20 10:07:06;;;;;;;7.13;3.55;;;8.70;80.10;;;;;;6129061;23;20081;-78
2023/02/20 10:09:31;;;;;;;4.35;3.15;;;8.70;80.30;;;;;;6103646;23;20389;-78
2023/02/20 10:12:10;;;;;;;8.00;3.28;;;8.80;80.30;;;;;;6104696;23;20029;-79
2023/02/20 10:14:43;;;;;;;4.10;3.10;;;8.90;80.10;;;;;;6104605;23;20014;-78
2023/02/20 10:17:25;;;;;;;7.55;3.70;;;9.00;79.90;;;;;;6104597;23;20020;-79
2023/02/20 10:20:06;;;;;;;4.57;3.30;;;9.20;79.70;;;;;;6104533;23;20014;-79
2023/02/20 10:22:47;;;;;;;5.90;3.75;;;9.30;79.60;;;;;;6103940;23;20104;-79
2023/02/20 10:25:22;;;;;;;4.25;3.08;;;9.30;79.40;;;;;;6130390;23;20033;-78
2023/02/20 10:28:00;;;;;;;23.13;11.73;;;9.40;79.20;;;;;;6130049;23;20032;-79
2023/02/20 10:30:44;;;;;;;5.63;4.40;;;9.60;79.20;;;;;;6129966;23;20006;-79
2023/02/20 10:33:38;;;;;;;7.28;3.67;;;9.60;79.00;;;;;;6129903;23;20002;-79
2023/02/20 10:36:22;;;;;;;8.48;3.88;;;9.50;79.40;;;;;;6129973;23;20498;-79
2023/02/20 10:39:09;;;;;;;6.47;3.72;;;9.50;79.30;;;;;;6130233;23;20013;-79
2023/02/20 10:41:56;;;;;;;9.15;4.45;;;9.50;80.20;;;;;;6128268;23;20006;-78
2023/02/20 10:44:41;;;;;;;4.90;3.17;;;9.30;80.30;;;;;;6130228;23;19998;-79
2023/02/20 10:47:30;;;;;;;4.88;4.07;;;9.20;81.30;;;;;;6129875;23;20077;-79
2023/02/20 10:50:08;;;;;;;6.93;4.57;;;9.20;81.30;;;;;;6129611;23;20002;-79
2023/02/20 10:52:46;;;;;;;10.95;5.43;;;9.40;80.80;;;;;;6129954;23;20386;-78
2023/02/20 10:55:18;;;;;;;5.70;3.60;;;9.50;80.60;;;;;;6104420;23;20450;-78
2023/02/20 10:57:50;;;;;;;5.75;4.10;;;9.70;80.30;;;;;;6104137;23;20006;-79
2023/02/20 11:00:32;;;;;;;7.57;5.28;;;9.80;79.90;;;;;;6129629;23;20033;-79
2023/02/20 11:03:06;;;;;;;8.48;4.30;;;9.90;79.90;;;;;;6129700;23;20383;-79
2023/02/20 11:05:39;;;;;;;7.88;5.28;;;9.80;79.90;;;;;;6103873;23;20006;-79
2023/02/20 11:08:04;;;;;;;7.90;4.18;;;9.70;80.50;;;;;;6129439;23;19998;-78
2023/02/20 11:10:31;;;;;;;8.30;4.38;;;9.60;80.40;;;;;;6129803;23;20439;-78
2023/02/20 11:13:01;;;;;;;8.68;4.57;;;9.50;80.90;;;;;;6103835;23;20037;-78
2023/02/20 11:15:33;;;;;;;10.55;4.82;;;9.60;80.50;;;;;;6129477;23;20061;-78
2023/02/20 11:17:59;;;;;;;8.27;5.13;;;9.60;80.40;;;;;;6128914;23;20001;-78
2023/02/20 11:20:31;;;;;;;14.48;5.75;;;9.70;81.10;;;;;;6129632;23;20498;-79
2023/02/20 11:22:58;;;;;;;8.68;5.20;;;9.80;80.60;;;;;;6129646;23;20012;-78
2023/02/20 11:25:30;;;;;;;9.68;5.15;;;9.80;79.60;;;;;;6103306;23;20013;-78
2023/02/20 11:28:06;;;;;;;9.57;5.40;;;9.60;80.60;;;;;;6129493;23;20465;-78
2023/02/20 11:30:38;;;;;;;8.18;5.15;;;9.50;80.80;;;;;;6103257;23;20025;-78
2023/02/20 11:33:17;;;;;;;8.88;4.55;;;9.70;81.00;;;;;;6127896;23;20012;-78
2023/02/20 11:35:49;;;;;;;13.02;7.70;;;9.80;80.40;;;;;;6128009;23;20005;-78
2023/02/20 11:38:24;;;;;;;11.05;6.47;;;9.70;79.80;;;;;;6129326;23;20006;-79
2023/02/20 11:40:59;;;;;;;9.55;6.28;;;9.80;80.90;;;;;;6103901;23;20009;-79
2023/02/20 11:43:30;;;;;;;8.52;4.40;;;10.10;80.40;;;;;;6129544;23;20006;-79
2023/02/20 11:46:20;;;;;;;11.18;6.13;;;10.30;80.00;;;;;;6129053;23;20622;-79
2023/02/20 11:49:04;;;;;;;8.88;4.57;;;10.10;79.20;;;;;;6127619;23;20002;-78
2023/02/20 11:51:44;;;;;;;11.82;6.32;;;9.80;80.00;;;;;;6129563;23;20006;-78
2023/02/20 11:54:20;;;;;;;7.47;4.68;;;9.90;81.00;;;;;;6129681;23;20009;-78
2023/02/20 11:57:01;;;;;;;8.82;4.80;;;10.00;80.30;;;;;;6128936;23;20001;-78
2023/02/20 11:59:29;;;;;;;9.30;4.53;;;10.10;80.30;;;;;;6129576;23;20010;-78
2023/02/20 12:02:09;;;;;;;8.98;5.00;;;10.10;79.80;;;;;;6127879;23;20089;-79
2023/02/20 12:04:35;;;;;;;8.88;5.43;;;10.20;80.20;;;;;;6128973;23;20005;-79
2023/02/20 12:07:21;;;;;;;9.68;5.63;;;10.20;80.10;;;;;;6129351;23;20002;-78
2023/02/20 12:09:51;;;;;;;11.52;4.68;;;10.00;80.20;;;;;;6129432;23;20008;-78
2023/02/20 12:12:22;;;;;;;8.77;5.53;;;9.90;80.60;;;;;;6127225;23;20021;-78
2023/02/20 12:14:48;;;;;;;7.47;5.07;;;10.00;80.80;;;;;;6129298;23;20006;-78
2023/02/20 12:17:36;;;;;;;9.68;5.38;;;10.30;80.50;;;;;;6128084;23;20017;-78
2023/02/20 12:20:11;;;;;;;9.43;4.75;;;10.30;80.40;;;;;;6127151;23;20470;-78
2023/02/20 12:22:43;;;;;;;9.35;5.18;;;10.50;80.20;;;;;;6129419;23;20013;-78
2023/02/20 12:25:22;;;;;;;9.70;4.93;;;10.50;80.00;;;;;;6127388;23;20009;-78
2023/02/20 12:28:18;;;;;;;10.05;5.50;;;10.50;79.60;;;;;;6127441;23;20008;-79
2023/02/20 12:31:05;;;;;;;9.45;5.10;;;10.50;79.50;;;;;;6128890;23;20085;-79
2023/02/20 12:33:50;;;;;;;9.35;5.40;;;10.50;80.40;;;;;;6128538;23;20383;-78
2023/02/20 12:36:23;;;;;;;7.25;4.53;;;10.50;80.20;;;;;;6129091;23;20030;-79
2023/02/20 12:39:11;;;;;;;9.07;5.45;;;10.60;80.00;;;;;;6128790;23;20501;-78
2023/02/20 12:41:55;;;;;;;12.30;5.20;;;10.70;79.80;;;;;;6129340;23;20379;-78
2023/02/20 12:44:53;;;;;;;8.68;5.68;;;10.70;79.60;;;;;;6128825;23;20036;-79
2023/02/20 12:47:35;;;;;;;7.97;5.55;;;10.80;79.20;;;;;;6109555;23;20057;-78
2023/02/20 12:50:24;;;;;;;11.00;5.97;;;10.70;79.30;;;;;;6129055;23;19994;-78
2023/02/20 12:52:53;;;;;;;11.07;5.93;;;10.60;79.50;;;;;;6128675;23;20081;-78
2023/02/20 12:55:24;;;;;;;13.25;5.75;;;10.70;80.10;;;;;;6129054;23;20061;-79
2023/02/20 12:58:05;;;;;;;11.90;5.72;;;10.70;80.10;;;;;;6103021;23;20034;-79
2023/02/20 13:00:45;;;;;;;12.55;6.70;;;10.80;79.70;;;;;;6103170;23;20001;-79
2023/02/20 13:03:23;;;;;;;9.38;5.72;;;10.70;79.60;;;;;;6102172;23;20025;-78
2023/02/20 13:05:50;;;;;;;13.88;6.63;;;10.70;80.00;;;;;;6128805;23;20030;-79
2023/02/20 13:08:32;;;;;;;9.45;5.82;;;10.80;79.80;;;;;;6128825;23;20013;-78
2023/02/20 13:11:01;;;;;;;7.63;5.10;;;10.70;80.20;;;;;;6128921;23;20324;-79
2023/02/20 13:13:54;;;;;;;9.30;4.95;;;10.90;79.90;;;;;;6128864;23;20010;-79
2023/02/20 13:16:33;;;;;;;15.07;6.18;;;11.00;79.50;;;;;;6102780;23;20006;-79
2023/02/20 13:19:20;;;;;;;14.48;6.78;;;10.90;79.20;;;;;;6103174;23;20006;-79
2023/02/20 13:21:46;;;;;;;15.90;8.32;;;11.00;79.10;;;;;;6102836;23;20013;-79
2023/02/20 13:24:36;;;;;;;9.52;5.22;;;11.00;79.20;;;;;;6128716;23;20009;-79
2023/02/20 13:27:25;;;;;;;15.20;7.70;;;10.90;79.00;;;;;;6102252;23;20009;-79
2023/02/20 13:30:16;;;;;;;11.90;7.50;;;11.00;79.40;;;;;;6103117;23;20002;-79
2023/02/20 13:32:44;;;;;;;14.30;6.75;;;11.10;79.50;;;;;;6128416;23;20029;-79
2023/02/20 13:35:41;;;;;;;13.82;6.85;;;11.10;79.50;;;;;;6129143;23;20006;-79
2023/02/20 13:38:14;;;;;;;14.90;7.47;;;11.20;79.10;;;;;;6102640;23;20014;-79
2023/02/20 13:40:43;;;;;;;15.65;8.15;;;11.10;79.20;;;;;;6129042;23;20002;-79
2023/02/20 13:43:12;;;;;;;11.07;5.82;;;11.10;79.70;;;;;;6129304;23;20454;-78
2023/02/20 13:46:13;;;;;;;17.10;6.38;;;11.20;79.40;;;;;;6130414;23;20002;-78
2023/02/20 13:48:38;;;;;;;;;;;11.20;78.90;;;;;;6123881;23;20014;-79
2023/02/20 13:51:24;;;;;;;13.55;6.50;;;11.20;78.90;;;;;;6104084;23;19936;-79
2023/02/20 13:53:52;;;;;;;11.95;6.47;;;11.10;79.30;;;;;;6130349;23;19998;-78
2023/02/20 13:56:19;;;;;;;14.93;7.00;;;11.10;79.20;;;;;;6104742;23;20010;-79
2023/02/20 13:58:45;;;;;;;15.60;7.40;;;11.20;79.10;;;;;;6130271;23;20040;-78
2023/02/20 14:01:11;;;;;;;12.95;6.90;;;11.20;79.00;;;;;;6130440;23;19998;-78
2023/02/20 14:03:37;;;;;;;10.23;5.53;;;11.20;79.00;;;;;;6130229;23;20394;-79
2023/02/20 14:06:12;;;;;;;14.02;6.35;;;11.20;79.10;;;;;;6130509;23;20010;-79
2023/02/20 14:08:49;;;;;;;12.65;5.85;;;11.30;79.10;;;;;;6130513;23;20005;-79
2023/02/20 14:11:30;;;;;;;11.82;6.22;;;11.20;78.80;;;;;;6130416;23;20084;-79
2023/02/20 14:13:57;;;;;;;11.70;6.40;;;11.30;79.00;;;;;;6130396;23;20010;-79
2023/02/20 14:16:31;;;;;;;9.25;5.50;;;11.40;78.80;;;;;;6130314;23;20002;-79
2023/02/20 14:19:06;;;;;;;9.00;5.50;;;11.40;78.30;;;;;;6104603;23;20414;-78
2023/02/20 14:21:34;;;;;;;11.63;5.57;;;11.40;78.60;;;;;;6130041;23;20002;-78
2023/02/20 14:24:18;;;;;;;13.70;5.50;;;11.30;78.80;;;;;;6104528;23;20010;-79
2023/02/20 14:26:45;;;;;;;11.55;5.03;;;11.40;78.70;;;;;;6130132;23;20002;-79
2023/02/20 14:29:21;;;;;;;12.13;6.10;;;11.40;78.70;;;;;;6104527;23;20002;-79
2023/02/20 14:31:50;;;;;;;11.93;6.32;;;11.50;78.50;;;;;;6130509;23;20025;-79
2023/02/20 14:34:29;;;;;;;14.97;6.07;;;11.60;78.10;;;;;;6129764;23;20166;-79
2023/02/20 14:37:04;;;;;;;13.30;6.28;;;11.70;78.20;;;;;;6130300;23;20458;-79
2023/02/20 14:39:51;;;;;;;12.93;6.53;;;11.70;77.80;;;;;;6104154;23;20332;-78
2023/02/20 14:42:22;;;;;;;13.25;6.13;;;11.70;77.70;;;;;;6130118;23;20013;-78
2023/02/20 14:45:05;;;;;;;16.75;6.97;;;11.70;77.80;;;;;;6129688;23;20002;-78
2023/02/20 14:47:31;;;;;;;11.85;7.47;;;11.70;77.90;;;;;;6130239;23;19998;-78
2023/02/20 14:50:33;;;;;;;12.60;6.03;;;11.70;77.80;;;;;;6103676;23;20395;-79
2023/02/20 14:53:03;;;;;;;11.95;6.22;;;11.60;78.10;;;;;;5983677;23;20012;-79
2023/02/20 14:55:28;;;;;;;13.33;6.67;;;11.60;78.20;;;;;;6104371;23;20328;-79
2023/02/20 14:57:54;;;;;;;10.90;6.32;;;11.60;78.10;;;;;;6103974;23;20087;-79
2023/02/20 15:00:20;;;;;;;12.02;5.80;;;11.60;78.10;;;;;;6103832;23;20073;-79
2023/02/20 15:02:50;;;;;;;11.50;6.45;;;11.50;77.80;;;;;;6103526;23;20014;-79
2023/02/20 15:05:19;;;;;;;11.00;7.65;;;11.50;77.80;;;;;;6103477;23;20002;-78
2023/02/20 15:07:46;;;;;;;12.63;6.90;;;11.30;78.10;;;;;;6129642;23;20009;-79
2023/02/20 15:10:47;;;;;;;7.75;5.68;;;11.30;78.70;;;;;;6103497;23;20462;-78
2023/02/20 15:13:15;;;;;;;12.45;6.65;;;11.20;79.10;;;;;;6052975;23;20062;-78
2023/02/20 15:15:49;;;;;;;14.00;7.68;;;11.30;79.00;;;;;;6129550;23;20005;-79
2023/02/20 15:18:32;;;;;;;12.32;6.10;;;11.40;78.60;;;;;;6129545;23;20008;-79
2023/02/20 15:20:57;;;;;;;11.60;6.15;;;11.40;78.70;;;;;;6130155;23;20060;-79
2023/02/20 15:23:34;;;;;;;15.90;8.02;;;11.30;78.40;;;;;;6129134;23;20014;-78
2023/02/20 15:26:30;;;;;;;12.88;6.90;;;11.20;78.80;;;;;;6103895;23;20359;-79
2023/02/20 15:29:19;;;;;;;11.13;5.97;;;11.20;78.70;;;;;;6103794;23;20566;-79
2023/02/20 15:31:53;;;;;;;11.07;5.73;;;11.10;78.90;;;;;;6129586;23;20022;-78
2023/02/20 15:34:23;;;;;;;10.45;6.07;;;11.20;79.10;;;;;;6103358;23;20013;-79
2023/02/20 15:36:49;;;;;;;14.38;8.30;;;11.30;78.90;;;;;;6129690;23;20033;-79
2023/02/20 15:39:16;;;;;;;19.98;7.70;;;11.30;78.90;;;;;;6103618;23;20010;-78
2023/02/20 15:41:42;;;;;;;12.75;6.30;;;11.30;78.50;;;;;;6129855;23;20102;-79
2023/02/20 15:44:09;;;;;;;13.60;7.43;;;11.20;78.80;;;;;;6129063;23;20002;-78
2023/02/20 15:46:35;;;;;;;13.73;6.50;;;11.20;79.20;;;;;;6103569;23;20358;-79
2023/02/20 15:49:01;;;;;;;19.27;7.13;;;11.10;79.10;;;;;;6129314;23;20025;-79
2023/02/20 15:51:29;;;;;;;11.18;6.85;;;11.10;79.40;;;;;;6129097;23;20081;-79
2023/02/20 15:53:57;;;;;;;13.00;7.28;;;11.20;79.40;;;;;;6103596;23;20041;-79
2023/02/20 15:56:31;;;;;;;9.60;5.95;;;11.30;79.20;;;;;;6129325;23;20371;-79
2023/02/20 15:59:06;;;;;;;11.55;6.45;;;11.30;79.30;;;;;;6129496;23;20072;-79
2023/02/20 16:01:31;;;;;;;12.45;7.45;;;11.30;79.20;;;;;;6129236;23;20079;-78
2023/02/20 16:03:57;;;;;;;20.65;9.35;;;11.20;78.60;;;;;;6129083;23;20006;-79
2023/02/20 16:06:23;;;;;;;14.38;6.97;;;11.20;78.80;;;;;;6128503;23;20005;-79
2023/02/20 16:08:50;;;;;;;9.50;6.07;;;11.20;78.80;;;;;;6128990;23;20073;-79
2023/02/20 16:11:17;;;;;;;17.20;6.82;;;11.10;78.70;;;;;;6129311;23;20009;-79
2023/02/20 16:13:46;;;;;;;10.45;6.57;;;11.10;78.60;;;;;;6129096;23;20002;-79
2023/02/20 16:16:18;;;;;;;16.48;6.85;;;11.10;78.50;;;;;;6129514;23;20014;-78
2023/02/20 16:18:44;;;;;;;10.93;5.53;;;11.10;78.50;;;;;;6103010;23;20006;-78
2023/02/20 16:21:13;;;;;;;18.83;9.45;;;11.10;78.50;;;;;;6103459;23;20006;-79
2023/02/20 16:23:41;;;;;;;13.02;7.60;;;11.10;78.60;;;;;;6103074;23;20497;-78
2023/02/20 16:26:08;;;;;;;18.50;8.38;;;11.10;78.60;;;;;;6129168;23;20009;-78
2023/02/20 16:28:33;;;;;;;18.63;7.10;;;11.10;78.60;;;;;;6102422;23;20006;-78
2023/02/20 16:30:59;;;;;;;14.52;7.80;;;11.00;78.80;;;;;;6107988;23;20045;-76
2023/02/20 16:33:25;;;;;;;16.67;9.13;;;11.00;78.90;;;;;;6128365;23;20033;-75
2023/02/20 16:35:52;;;;;;;20.02;10.13;;;11.00;78.80;;;;;;6129019;23;20069;-76
2023/02/20 16:38:28;;;;;;;16.85;9.10;;;10.90;78.90;;;;;;6128198;23;20021;-79
2023/02/20 16:40:53;;;;;;;16.83;7.75;;;10.90;78.80;;;;;;6129076;23;20010;-78
2023/02/20 16:43:22;;;;;;;14.73;9.32;;;10.80;78.80;;;;;;6127029;23;20037;-77
2023/02/20 16:45:49;;;;;;;23.75;10.20;;;10.70;79.00;;;;;;6126999;23;20315;-79
2023/02/20 16:48:17;;;;;;;16.30;10.00;;;10.70;79.20;;;;;;6127356;23;20033;-76
2023/02/20 16:50:43;;;;;;;18.58;9.35;;;10.70;79.20;;;;;;6128753;23;19998;-77
2023/02/20 16:53:11;;;;;;;17.88;9.50;;;10.60;78.80;;;;;;6128701;23;20006;-76
2023/02/20 16:55:40;;;;;;;16.38;9.60;;;10.50;79.20;;;;;;6127546;23;20013;-77
2023/02/20 16:58:06;;;;;;;19.45;11.75;;;10.50;79.40;;;;;;6127794;23;20037;-83
2023/02/20 17:00:39;;;;;;;18.65;10.70;;;10.40;79.50;;;;;;6128535;23;20043;-78
2023/02/20 17:03:05;;;;;;;20.17;11.00;;;10.40;79.40;;;;;;6127322;23;20006;-76
2023/02/20 17:05:33;;;;;;;19.48;11.85;;;10.30;79.30;;;;;;6128490;23;19998;-81
2023/02/20 17:07:59;;;;;;;20.90;11.60;;;10.30;79.60;;;;;;6127285;23;20033;-76
2023/02/20 17:10:26;;;;;;;25.40;12.55;;;10.30;79.60;;;;;;6128260;23;20062;-75
2023/02/20 17:12:53;;;;;;;18.02;9.57;;;10.20;79.60;;;;;;6128611;23;20037;-74
2023/02/20 17:15:21;;;;;;;19.38;9.82;;;10.20;79.40;;;;;;6114566;23;20066;-79
2023/02/20 17:17:46;;;;;;;23.77;12.15;;;10.20;79.40;;;;;;6129705;23;20088;-78
2023/02/20 17:20:15;;;;;;;26.88;12.73;;;10.10;79.60;;;;;;6130612;23;20009;-78
2023/02/20 17:22:41;;;;;;;20.13;11.70;;;10.10;79.40;;;;;;6129413;23;20017;-76
2023/02/20 17:25:09;;;;;;;19.63;13.23;;;10.00;79.60;;;;;;6122643;23;20016;-78
2023/02/20 17:27:34;;;;;;;23.73;13.95;;;10.00;79.40;;;;;;6127684;23;20002;-76
2023/02/20 17:30:01;;;;;;;26.58;16.35;;;9.90;79.50;;;;;;6128115;23;20094;-77
2023/02/20 17:32:27;;;;;;;25.67;15.13;;;9.90;79.50;;;;;;6129193;23;20049;-77
2023/02/20 17:34:53;;;;;;;21.35;14.82;;;9.80;79.30;;;;;;6104227;23;20013;-76
2023/02/20 17:37:19;;;;;;;21.42;15.27;;;9.80;79.50;;;;;;6129542;23;20008;-76
2023/02/20 17:39:45;;;;;;;24.15;15.00;;;9.70;79.20;;;;;;6130791;23;20458;-76
2023/02/20 17:42:12;;;;;;;23.13;15.55;;;9.70;79.40;;;;;;6129578;23;20391;-77
2023/02/20 17:44:39;;;;;;;23.92;14.10;;;9.70;79.70;;;;;;6104265;23;20006;-76
2023/02/20 17:47:08;;;;;;;18.20;11.77;;;9.60;79.70;;;;;;6129653;23;20006;-76
2023/02/20 17:49:34;;;;;;;21.95;12.23;;;9.60;79.50;;;;;;6130250;23;20026;-77
2023/02/20 17:52:03;;;;;;;26.38;15.98;;;9.60;79.70;;;;;;6130074;23;20006;-78
2023/02/20 17:54:33;;;;;;;24.50;13.88;;;9.60;79.60;;;;;;6104696;23;20037;-75
2023/02/20 17:57:00;;;;;;;24.33;13.23;;;9.60;79.60;;;;;;6129481;23;20029;-74
2023/02/20 17:59:26;;;;;;;21.13;12.35;;;9.50;79.10;;;;;;6097089;23;20010;-73
2023/02/20 18:01:53;;;;;;;17.83;12.40;;;9.40;79.40;;;;;;6129564;23;20006;-73
2023/02/20 18:04:18;;;;;;;17.05;10.55;;;9.30;79.50;;;;;;6102720;23;20002;-77
2023/02/20 18:06:45;;;;;;;19.40;11.98;;;9.40;79.60;;;;;;6129167;23;20009;-78
2023/02/20 18:09:16;;;;;;;23.67;14.88;;;9.30;79.40;;;;;;6104112;23;20013;-77
2023/02/20 18:11:43;;;;;;;28.67;16.42;;;9.30;79.30;;;;;;6129960;23;20005;-77
2023/02/20 18:14:09;;;;;;;25.75;17.00;;;9.20;79.60;;;;;;6129975;23;20016;-77
2023/02/20 18:16:38;;;;;;;29.42;20.55;;;9.10;79.90;;;;;;6129407;23;20514;-77
2023/02/20 18:19:05;;;;;;;37.33;19.42;;;9.10;80.10;;;;;;6129997;23;20438;-78
2023/02/20 18:21:31;;;;;;;36.47;19.27;;;9.00;80.30;;;;;;6129476;23;20085;-77
2023/02/20 18:23:57;;;;;;;33.03;17.98;;;9.00;80.50;;;;;;6114349;23;20084;-85
2023/02/20 18:26:25;;;;;;;29.15;15.85;;;9.00;80.60;;;;;;6129637;23;20005;-81
2023/02/20 18:28:51;;;;;;;28.55;16.65;;;9.00;80.70;;;;;;6129873;23;20159;-81
2023/02/20 18:31:17;;;;;;;38.80;19.38;;;9.00;80.60;;;;;;6129852;23;20010;-84
2023/02/20 18:33:43;;;;;;;37.65;20.17;;;9.00;80.50;;;;;;6103189;23;20045;-87
2023/02/20 18:36:09;;;;;;;47.10;23.92;;;8.90;80.60;;;;;;6109856;23;20010;-84